Time;durP1;ratioP1;P1;durP2;ratioP2;P2;SDS_P1;SDS_P2;PMS_P1;PMS_P2;Temp;Humidity;BMP_temperature;BMP_pressure;BME280_temperature;BME280_humidity;BME280_pressure;Samples;Min_cycle;Max_cycle;Signal;HPM_P1;HPM_P2
2022/09/17 00:00:32;;;;;;;9.15;2.55;;;25.30;99.90;;;;;;5050451;28;20116;-71
2022/09/17 00:02:58;;;;;;;9.95;2.80;;;25.30;99.90;;;;;;5050766;28;20104;-71
2022/09/17 00:05:24;;;;;;;8.10;2.53;;;25.30;99.90;;;;;;5050766;28;20107;-70
2022/09/17 00:07:52;;;;;;;8.95;2.58;;;25.30;99.90;;;;;;5049355;28;20071;-71
2022/09/17 00:10:19;;;;;;;13.98;2.70;;;25.40;99.90;;;;;;5050501;28;20377;-70
2022/09/17 00:12:46;;;;;;;9.82;2.60;;;25.30;99.90;;;;;;5050788;28;20056;-71
2022/09/17 00:15:12;;;;;;;10.02;2.70;;;25.40;99.90;;;;;;5050712;28;20071;-71
2022/09/17 00:17:38;;;;;;;7.60;2.30;;;25.40;99.90;;;;;;5049437;28;20033;-70
2022/09/17 00:20:12;;;;;;;7.72;2.47;;;25.50;99.90;;;;;;5050629;28;20025;-71
2022/09/17 00:22:39;;;;;;;10.25;2.50;;;25.50;99.90;;;;;;5050575;28;20025;-71
2022/09/17 00:25:07;;;;;;;10.60;2.40;;;25.60;99.90;;;;;;5050285;28;20195;-71
2022/09/17 00:27:33;;;;;;;10.00;2.33;;;25.70;99.90;;;;;;5050281;28;20422;-71
2022/09/17 00:29:59;;;;;;;5.88;2.15;;;25.70;99.90;;;;;;5050309;28;20033;-71
2022/09/17 00:32:26;;;;;;;8.07;2.30;;;25.80;99.90;;;;;;4998754;28;1492873;-71
2022/09/17 00:34:52;;;;;;;7.32;2.03;;;25.80;99.90;;;;;;5051324;28;20102;-72
2022/09/17 00:37:19;;;;;;;6.65;2.05;;;25.80;99.90;;;;;;5051452;28;20103;-71
2022/09/17 00:39:45;;;;;;;9.07;2.53;;;25.80;99.90;;;;;;5051023;28;20029;-71
2022/09/17 00:42:15;;;;;;;8.05;2.40;;;25.90;99.90;;;;;;5050993;28;20062;-70
2022/09/17 00:44:49;;;;;;;11.13;2.45;;;25.90;99.90;;;;;;5050907;28;20028;-70
2022/09/17 00:47:21;;;;;;;10.15;2.20;;;25.90;99.90;;;;;;5050921;28;20036;-70
2022/09/17 00:49:49;;;;;;;8.35;2.40;;;25.90;99.90;;;;;;5050997;28;20033;-71
2022/09/17 00:52:25;;;;;;;12.02;2.78;;;26.00;99.90;;;;;;5051163;28;20080;-71
2022/09/17 00:55:16;;;;;;;8.63;2.50;;;26.00;99.90;;;;;;5051105;28;20037;-71
2022/09/17 00:57:44;;;;;;;7.35;2.60;;;26.00;99.90;;;;;;5051078;28;20116;-71
2022/09/17 01:00:13;;;;;;;7.43;2.67;;;25.90;99.90;;;;;;5051138;28;20055;-70
2022/09/17 01:02:41;;;;;;;13.45;3.17;;;25.90;99.90;;;;;;5050795;28;20101;-71
2022/09/17 01:05:09;;;;;;;6.93;2.45;;;25.90;99.90;;;;;;5051069;28;20381;-71
2022/09/17 01:07:56;;;;;;;8.38;2.70;;;25.90;99.90;;;;;;5049093;28;20209;-71
2022/09/17 01:10:37;;;;;;;11.90;2.85;;;25.90;99.90;;;;;;5051072;28;20096;-71
2022/09/17 01:13:30;;;;;;;9.50;2.70;;;25.90;99.90;;;;;;5051022;28;20074;-71
2022/09/17 01:16:18;;;;;;;13.27;2.67;;;25.90;99.90;;;;;;5050750;28;20017;-71
2022/09/17 01:19:13;;;;;;;22.30;3.65;;;25.90;99.90;;;;;;5051028;28;20029;-71
2022/09/17 01:21:53;;;;;;;17.58;2.92;;;25.30;99.90;;;;;;5042507;28;20436;-71
2022/09/17 01:24:39;;;;;;;12.73;2.55;;;24.80;99.90;;;;;;5050921;28;20033;-71
2022/09/17 01:27:21;;;;;;;8.17;2.07;;;24.40;99.90;;;;;;5050810;28;20021;-71
2022/09/17 01:30:07;;;;;;;9.85;1.48;;;24.20;99.90;;;;;;5053865;28;20087;-71
2022/09/17 01:32:46;;;;;;;12.20;1.67;;;24.00;99.90;;;;;;5054244;28;20044;-70
2022/09/17 01:35:27;;;;;;;10.02;1.77;;;24.00;99.90;;;;;;5054519;28;20029;-70
2022/09/17 01:38:31;;;;;;;10.15;1.58;;;24.10;99.90;;;;;;5054490;28;20095;-71
2022/09/17 01:41:15;;;;;;;13.07;2.08;;;24.20;99.90;;;;;;5052578;28;20097;-71
2022/09/17 01:43:51;;;;;;;13.63;2.00;;;24.30;99.90;;;;;;5054482;28;20025;-71
2022/09/17 01:46:23;;;;;;;8.43;1.70;;;24.30;99.90;;;;;;5054198;28;20028;-72
2022/09/17 01:48:55;;;;;;;12.18;2.20;;;24.30;99.90;;;;;;5054214;28;20052;-71
2022/09/17 01:51:28;;;;;;;10.88;1.95;;;24.40;99.90;;;;;;5052575;28;20025;-71
2022/09/17 01:54:12;;;;;;;12.15;2.20;;;24.50;99.90;;;;;;5054257;28;20192;-71
2022/09/17 01:57:01;;;;;;;10.00;1.73;;;24.60;99.90;;;;;;5053814;28;20083;-71
2022/09/17 01:59:39;;;;;;;10.38;1.92;;;24.60;99.90;;;;;;5050176;28;20041;-71
2022/09/17 02:02:17;;;;;;;12.90;1.88;;;24.60;99.90;;;;;;5053786;28;20056;-71
2022/09/17 02:04:49;;;;;;;12.02;2.08;;;24.60;99.90;;;;;;5054172;28;20025;-71
2022/09/17 02:07:21;;;;;;;14.88;1.98;;;24.50;99.90;;;;;;5053951;28;20445;-71
2022/09/17 02:09:58;;;;;;;10.77;2.45;;;24.50;99.90;;;;;;5053647;28;20032;-71
2022/09/17 02:12:38;;;;;;;11.40;2.40;;;24.40;99.90;;;;;;5053796;28;20025;-71
2022/09/17 02:15:10;;;;;;;15.23;2.30;;;24.20;99.90;;;;;;5053883;28;20029;-71
2022/09/17 02:17:44;;;;;;;11.90;2.28;;;24.10;99.90;;;;;;5053394;28;20025;-71
2022/09/17 02:20:11;;;;;;;14.63;2.35;;;24.00;99.90;;;;;;5053697;28;20101;-71
2022/09/17 02:22:51;;;;;;;14.02;2.28;;;23.70;99.90;;;;;;5051772;28;20033;-71
2022/09/17 02:25:41;;;;;;;11.25;1.75;;;23.60;99.90;;;;;;5051756;28;20032;-71
2022/09/17 02:28:10;;;;;;;8.45;1.35;;;23.50;99.90;;;;;;5053003;28;20044;-71
2022/09/17 02:30:36;;;;;;;9.85;1.65;;;23.30;99.90;;;;;;5053214;28;20045;-70
2022/09/17 02:33:08;;;;;;;10.32;1.60;;;23.30;99.90;;;;;;5053387;28;20048;-71
2022/09/17 02:35:36;;;;;;;8.38;1.33;;;23.20;99.90;;;;;;5053165;28;20021;-70
2022/09/17 02:38:02;;;;;;;6.30;1.42;;;23.00;99.90;;;;;;5052836;28;20054;-70
2022/09/17 02:40:33;;;;;;;9.55;1.40;;;23.00;99.90;;;;;;5052073;28;20032;-71
2022/09/17 02:43:21;;;;;;;7.72;1.35;;;23.10;99.90;;;;;;5052958;28;20033;-71
2022/09/17 02:46:17;;;;;;;7.05;1.20;;;23.20;99.90;;;;;;5051514;28;20121;-71
2022/09/17 02:48:52;;;;;;;;;;;23.40;99.90;;;;;;5053130;28;20040;-71
2022/09/17 02:51:56;;;;;;;5.17;1.07;;;23.60;99.90;;;;;;5053144;28;19973;-71
2022/09/17 02:54:42;;;;;;;6.32;0.88;;;23.80;99.90;;;;;;5052802;28;20037;-72
2022/09/17 02:57:14;;;;;;;;;;;23.90;99.90;;;;;;5051872;28;20025;-71
2022/09/17 02:59:43;;;;;;;6.47;0.98;;;24.00;99.90;;;;;;5053119;28;19911;-71
2022/09/17 03:02:22;;;;;;;6.82;1.38;;;24.00;99.90;;;;;;5053214;28;20382;-70
2022/09/17 03:04:50;;;;;;;6.80;1.20;;;24.10;99.90;;;;;;5053198;28;20024;-72
2022/09/17 03:07:18;;;;;;;4.90;0.88;;;24.20;99.90;;;;;;5052839;28;20035;-71
2022/09/17 03:09:44;;;;;;;6.97;1.00;;;24.20;99.90;;;;;;5052699;28;20025;-71
2022/09/17 03:12:11;;;;;;;5.78;0.80;;;24.30;99.90;;;;;;5052826;28;20071;-71
2022/09/17 03:14:37;;;;;;;4.50;0.70;;;24.40;99.90;;;;;;5052459;28;20159;-71
2022/09/17 03:17:04;;;;;;;4.88;0.82;;;24.40;99.90;;;;;;5051127;28;20428;-72
2022/09/17 03:19:30;;;;;;;4.82;1.10;;;24.50;99.90;;;;;;5052314;28;20029;-71
2022/09/17 03:21:56;;;;;;;5.07;1.00;;;24.60;99.90;;;;;;5052415;28;20500;-71
2022/09/17 03:24:22;;;;;;;6.57;1.10;;;24.60;99.90;;;;;;5052930;28;20025;-71
2022/09/17 03:26:48;;;;;;;6.10;1.25;;;24.70;99.90;;;;;;5053160;28;20025;-71
2022/09/17 03:29:14;;;;;;;8.63;1.27;;;24.80;99.90;;;;;;5053136;28;20040;-71
2022/09/17 03:31:40;;;;;;;;;;;24.70;99.90;;;;;;5053462;28;20110;-72
2022/09/17 03:34:06;;;;;;;8.55;1.25;;;24.70;99.90;;;;;;5053367;28;19940;-71
2022/09/17 03:36:33;;;;;;;6.32;1.40;;;24.70;99.90;;;;;;5053538;28;20075;-71
2022/09/17 03:38:59;;;;;;;10.18;1.38;;;24.80;99.90;;;;;;5053478;28;20543;-71
2022/09/17 03:41:25;;;;;;;10.48;1.50;;;24.90;99.90;;;;;;5051633;28;20119;-71
2022/09/17 03:43:52;;;;;;;7.95;1.58;;;24.80;99.90;;;;;;5053335;28;20108;-71
2022/09/17 03:46:18;;;;;;;;;;;24.80;99.90;;;;;;5053535;28;20532;-71
2022/09/17 03:48:44;;;;;;;;;;;24.80;99.90;;;;;;5053306;28;19913;-71
2022/09/17 03:51:10;;;;;;;8.32;1.13;;;24.70;99.90;;;;;;5052598;28;20008;-71
2022/09/17 03:53:37;;;;;;;9.07;1.55;;;24.70;99.90;;;;;;5052699;28;20059;-70
2022/09/17 03:56:05;;;;;;;10.48;1.60;;;24.70;99.90;;;;;;5052749;28;20075;-71
2022/09/17 03:58:32;;;;;;;9.25;1.50;;;24.70;99.90;;;;;;5051369;28;20029;-70
2022/09/17 04:00:58;;;;;;;12.02;1.85;;;24.70;99.90;;;;;;5052707;28;20086;-70
2022/09/17 04:03:27;;;;;;;7.35;1.38;;;24.70;99.90;;;;;;5053122;28;20036;-71
2022/09/17 04:05:53;;;;;;;10.85;1.90;;;24.60;99.90;;;;;;5052685;28;20543;-70
2022/09/17 04:08:20;;;;;;;10.32;1.75;;;24.60;99.90;;;;;;5051210;28;20514;-71
2022/09/17 04:10:47;;;;;;;20.95;2.78;;;24.60;99.90;;;;;;5052806;28;20365;-70
2022/09/17 04:13:13;;;;;;;;;;;24.60;99.90;;;;;;5053214;28;20514;-71
2022/09/17 04:15:40;;;;;;;14.40;2.38;;;24.60;99.90;;;;;;5052444;28;19905;-71
2022/09/17 04:18:06;;;;;;;22.55;3.15;;;24.60;99.90;;;;;;5052345;28;20017;-70
2022/09/17 04:20:32;;;;;;;14.25;2.40;;;24.60;99.90;;;;;;5052806;28;20154;-70
2022/09/17 04:22:58;;;;;;;21.98;3.30;;;24.60;99.90;;;;;;5053052;28;20434;-70
2022/09/17 04:25:24;;;;;;;16.83;2.75;;;24.60;99.90;;;;;;5052738;28;20473;-71
2022/09/17 04:27:50;;;;;;;30.65;3.72;;;24.60;99.90;;;;;;5050964;28;20063;-70
2022/09/17 04:30:17;;;;;;;24.70;3.95;;;24.50;99.90;;;;;;5052614;28;20458;-72
2022/09/17 04:32:44;;;;;;;28.55;3.83;;;24.50;99.90;;;;;;5052504;28;20393;-70
2022/09/17 04:35:10;;;;;;;13.35;2.30;;;24.40;99.90;;;;;;5050996;28;20109;-71
2022/09/17 04:37:36;;;;;;;;;;;24.30;99.90;;;;;;5052807;28;20028;-70
2022/09/17 04:40:03;;;;;;;9.80;1.60;;;24.20;99.90;;;;;;5052378;28;19906;-71
2022/09/17 04:42:29;;;;;;;12.45;2.38;;;24.00;99.90;;;;;;5052681;28;20108;-71
2022/09/17 04:44:56;;;;;;;11.80;2.05;;;24.00;99.90;;;;;;5052476;28;20369;-70
2022/09/17 04:47:21;;;;;;;;;;;23.90;99.90;;;;;;5052994;28;20021;-70
2022/09/17 04:49:47;;;;;;;8.73;2.03;;;23.90;99.90;;;;;;5052242;28;20010;-70
2022/09/17 04:52:14;;;;;;;10.25;1.65;;;23.70;99.90;;;;;;5052804;28;20033;-70
2022/09/17 04:54:40;;;;;;;14.02;1.52;;;23.50;99.90;;;;;;5052672;28;20017;-70
2022/09/17 04:57:06;;;;;;;6.57;1.30;;;23.50;99.90;;;;;;5052689;28;20056;-70
2022/09/17 04:59:32;;;;;;;10.02;1.17;;;23.40;99.90;;;;;;5052609;28;20118;-70
2022/09/17 05:01:58;;;;;;;6.68;1.08;;;23.40;99.90;;;;;;5050871;28;20029;-69
2022/09/17 05:04:24;;;;;;;11.10;1.40;;;23.30;99.90;;;;;;5055373;28;20017;-70
2022/09/17 05:06:50;;;;;;;7.80;1.20;;;23.10;99.90;;;;;;5056528;28;20037;-69
2022/09/17 05:09:16;;;;;;;9.32;1.35;;;23.20;99.90;;;;;;5056420;28;20037;-70
2022/09/17 05:11:42;;;;;;;11.50;1.40;;;23.20;99.90;;;;;;5055951;28;20108;-70
2022/09/17 05:14:08;;;;;;;9.10;1.38;;;23.10;99.90;;;;;;5055951;28;20071;-70
2022/09/17 05:16:35;;;;;;;9.25;1.58;;;23.10;99.90;;;;;;5055855;28;20033;-70
2022/09/17 05:19:02;;;;;;;8.40;1.60;;;23.20;99.90;;;;;;5055858;28;20017;-70
2022/09/17 05:21:28;;;;;;;9.30;1.35;;;23.10;99.90;;;;;;5055421;28;20068;-71
2022/09/17 05:23:54;;;;;;;8.35;1.38;;;23.10;99.90;;;;;;5056131;28;20469;-70
2022/09/17 05:26:21;;;;;;;10.80;1.63;;;23.10;99.90;;;;;;5055574;28;20091;-70
2022/09/17 05:28:47;;;;;;;11.55;1.98;;;23.10;99.90;;;;;;5054931;28;20040;-70
2022/09/17 05:31:13;;;;;;;12.82;1.77;;;23.20;99.90;;;;;;5054572;28;20094;-70
2022/09/17 05:33:39;;;;;;;15.45;1.60;;;23.20;99.90;;;;;;5054629;28;20108;-69
2022/09/17 05:36:06;;;;;;;14.43;2.17;;;23.30;99.90;;;;;;5054883;28;20108;-70
2022/09/17 05:38:32;;;;;;;9.45;1.73;;;23.30;99.90;;;;;;5052929;28;20033;-70
2022/09/17 05:40:58;;;;;;;10.25;1.80;;;23.40;99.90;;;;;;5054846;28;20042;-71
2022/09/17 05:43:24;;;;;;;8.55;1.50;;;23.40;99.90;;;;;;5054921;28;20017;-71
2022/09/17 05:45:50;;;;;;;9.35;1.67;;;23.40;99.90;;;;;;5054376;28;20025;-70
2022/09/17 05:48:16;;;;;;;7.60;1.48;;;23.70;99.90;;;;;;5052796;28;20498;-71
2022/09/17 05:50:42;;;;;;;9.88;1.50;;;24.40;99.90;;;;;;5052523;28;20025;-71
2022/09/17 05:53:12;;;;;;;11.48;2.00;;;24.90;99.90;;;;;;5053313;28;20021;-71
2022/09/17 05:55:39;;;;;;;14.75;2.40;;;24.90;99.90;;;;;;5051395;28;20441;-71
2022/09/17 05:58:11;;;;;;;21.20;2.20;;;25.00;99.90;;;;;;5052845;28;20021;-72
2022/09/17 06:00:37;;;;;;;12.20;2.30;;;25.00;99.90;;;;;;5052632;28;20025;-71
2022/09/17 06:03:03;;;;;;;10.63;2.00;;;25.30;99.90;;;;;;5053653;28;20111;-71
2022/09/17 06:05:29;;;;;;;11.45;1.70;;;26.20;99.90;;;;;;5053452;28;20017;-71
2022/09/17 06:07:55;;;;;;;8.20;1.45;;;27.30;99.90;;;;;;5053848;28;20037;-72
2022/09/17 06:10:21;;;;;;;11.88;2.03;;;27.90;99.90;;;;;;5054337;28;20017;-73
2022/09/17 06:12:47;;;;;;;11.10;1.95;;;28.60;99.90;;;;;;5054441;28;20477;-74
2022/09/17 06:15:14;;;;;;;13.15;2.03;;;29.20;99.90;;;;;;5054209;28;20086;-71
2022/09/17 06:17:41;;;;;;;16.52;2.20;;;28.60;99.90;;;;;;5053753;28;20496;-71
2022/09/17 06:20:07;;;;;;;13.98;1.85;;;28.10;99.90;;;;;;5053838;28;20373;-71
2022/09/17 06:22:33;;;;;;;12.10;1.80;;;28.30;99.90;;;;;;5053315;28;20098;-72
2022/09/17 06:25:01;;;;;;;10.75;1.90;;;29.00;99.90;;;;;;5053475;28;20024;-70
2022/09/17 06:27:34;;;;;;;8.90;1.70;;;29.80;99.90;;;;;;5052968;28;20021;-71
2022/09/17 06:30:00;;;;;;;8.70;1.70;;;30.40;99.90;;;;;;5053047;28;20119;-71
2022/09/17 06:32:27;;;;;;;13.07;2.35;;;30.90;99.90;;;;;;5052823;28;20102;-71
2022/09/17 06:34:57;;;;;;;11.02;2.03;;;31.20;99.90;;;;;;5052761;28;20056;-71
2022/09/17 06:37:30;;;;;;;11.70;2.00;;;30.70;99.90;;;;;;5052850;28;20025;-71
2022/09/17 06:39:58;;;;;;;10.38;2.05;;;31.10;99.90;;;;;;5053293;28;20064;-71
2022/09/17 06:42:25;;;;;;;10.65;1.70;;;31.10;99.90;;;;;;5052913;28;20029;-71
2022/09/17 06:44:51;;;;;;;10.85;1.60;;;31.50;99.90;;;;;;5052663;28;20033;-72
2022/09/17 06:47:17;;;;;;;;;;;31.80;99.90;;;;;;5053114;28;20029;-72
2022/09/17 06:49:43;;;;;;;7.65;1.50;;;31.70;99.90;;;;;;5052548;28;19913;-72
2022/09/17 06:52:09;;;;;;;9.25;1.65;;;32.20;99.90;;;;;;5052874;28;20029;-72
2022/09/17 06:54:35;;;;;;;8.32;1.40;;;32.30;99.90;;;;;;5052866;28;20016;-72
2022/09/17 06:57:01;;;;;;;10.02;1.73;;;32.70;99.90;;;;;;5052848;28;20350;-72
2022/09/17 06:59:27;;;;;;;7.68;1.65;;;33.60;99.90;;;;;;5052805;28;20025;-73
2022/09/17 07:01:54;;;;;;;4.57;0.80;;;33.30;99.90;;;;;;5052458;28;20105;-73
2022/09/17 07:04:20;;;;;;;4.47;1.20;;;33.30;99.90;;;;;;5052407;28;20025;-73
2022/09/17 07:06:46;;;;;;;5.85;1.05;;;32.80;99.90;;;;;;5052697;28;20025;-72
2022/09/17 07:09:12;;;;;;;5.43;1.25;;;32.80;99.90;;;;;;5052244;28;20452;-72
2022/09/17 07:11:39;;;;;;;3.40;1.00;;;33.40;99.90;;;;;;5052560;28;20074;-73
2022/09/17 07:14:05;;;;;;;7.65;1.75;;;32.90;99.90;;;;;;5052570;28;20040;-73
2022/09/17 07:16:34;;;;;;;4.35;1.10;;;32.90;99.90;;;;;;5050937;28;20025;-74
2022/09/17 07:19:04;;;;;;;5.53;1.02;;;32.60;99.90;;;;;;5052395;28;20028;-74
2022/09/17 07:21:30;;;;;;;3.20;0.77;;;32.70;99.90;;;;;;5052185;28;20036;-71
2022/09/17 07:23:57;;;;;;;4.97;0.82;;;32.80;99.90;;;;;;5050175;28;20420;-71
2022/09/17 07:26:24;;;;;;;4.40;0.88;;;33.70;99.90;;;;;;5051567;28;20079;-71
2022/09/17 07:28:50;;;;;;;4.72;0.82;;;34.70;99.90;;;;;;5051496;28;20048;-72
2022/09/17 07:31:16;;;;;;;8.45;1.50;;;35.10;99.40;;;;;;5051320;28;20485;-72
2022/09/17 07:33:42;;;;;;;4.97;1.17;;;34.90;99.20;;;;;;5051296;28;20381;-71
2022/09/17 07:36:12;;;;;;;5.18;1.10;;;34.70;99.70;;;;;;5051294;28;20092;-72
2022/09/17 07:38:38;;;;;;;8.27;1.38;;;34.60;99.60;;;;;;5051132;28;20025;-73
2022/09/17 07:41:08;;;;;;;5.90;1.15;;;34.50;99.90;;;;;;5051235;28;20024;-72
2022/09/17 07:43:35;;;;;;;6.38;1.17;;;34.50;99.90;;;;;;5051293;28;20029;-72
2022/09/17 07:46:03;;;;;;;4.80;1.20;;;34.10;99.00;;;;;;5051029;28;20017;-72
2022/09/17 07:48:29;;;;;;;6.13;0.95;;;33.70;99.00;;;;;;5051216;28;20036;-73
2022/09/17 07:50:56;;;;;;;9.85;1.17;;;33.60;99.40;;;;;;5051053;28;20424;-72
2022/09/17 07:53:55;;;;;;;6.40;0.80;;;33.40;99.60;;;;;;5050988;28;20461;-71
2022/09/17 07:56:22;;;;;;;6.93;1.13;;;33.40;99.60;;;;;;5051122;28;20449;-73
2022/09/17 07:58:49;;;;;;;7.38;1.05;;;33.50;99.90;;;;;;5050967;28;20017;-73
2022/09/17 08:01:16;;;;;;;8.13;1.40;;;33.40;99.90;;;;;;5051022;28;20084;-72
2022/09/17 08:03:43;;;;;;;9.20;1.27;;;33.30;99.90;;;;;;5051078;28;20041;-72
2022/09/17 08:06:16;;;;;;;8.30;1.52;;;32.90;99.90;;;;;;5049594;28;20036;-72
2022/09/17 08:08:42;;;;;;;10.43;1.50;;;32.80;99.90;;;;;;5050744;28;20029;-73
2022/09/17 08:11:13;;;;;;;10.93;1.60;;;32.80;99.90;;;;;;5051198;28;20490;-72
2022/09/17 08:13:41;;;;;;;8.63;1.40;;;32.70;99.90;;;;;;5050986;28;20415;-72
2022/09/17 08:16:11;;;;;;;9.23;1.50;;;32.60;99.90;;;;;;5050737;28;20043;-72
2022/09/17 08:18:38;;;;;;;8.23;1.63;;;32.80;99.90;;;;;;5051080;28;20031;-72
2022/09/17 08:21:06;;;;;;;9.07;1.80;;;32.90;99.90;;;;;;5050866;28;20057;-72
2022/09/17 08:23:38;;;;;;;9.85;1.92;;;32.70;99.90;;;;;;5050507;28;20380;-74
2022/09/17 08:26:07;;;;;;;10.63;1.63;;;32.80;99.90;;;;;;5050830;28;20448;-73
2022/09/17 08:28:34;;;;;;;9.52;2.13;;;32.80;99.90;;;;;;5050829;28;20115;-72
2022/09/17 08:31:04;;;;;;;11.70;1.70;;;32.60;99.90;;;;;;5050953;28;20107;-73
2022/09/17 08:33:31;;;;;;;11.45;1.90;;;32.70;99.90;;;;;;5050706;28;20430;-73
2022/09/17 08:35:58;;;;;;;11.60;2.17;;;32.50;99.90;;;;;;5050864;28;20025;-73
2022/09/17 08:38:28;;;;;;;13.05;1.90;;;32.60;99.90;;;;;;5051889;28;20029;-73
2022/09/17 08:41:09;;;;;;;15.63;2.08;;;32.50;99.90;;;;;;5054991;28;20059;-73
2022/09/17 08:44:00;;;;;;;16.73;1.98;;;32.20;99.90;;;;;;5055108;28;20126;-73
2022/09/17 08:46:31;;;;;;;12.18;1.95;;;31.60;99.90;;;;;;5054940;28;20354;-73
2022/09/17 08:49:23;;;;;;;9.98;1.85;;;31.50;99.90;;;;;;5054471;28;20469;-72
2022/09/17 08:52:04;;;;;;;14.60;2.53;;;31.50;99.90;;;;;;5054729;28;20047;-73
2022/09/17 08:54:50;;;;;;;17.67;2.17;;;31.30;99.90;;;;;;5053725;28;20103;-73
2022/09/17 08:57:21;;;;;;;12.70;2.17;;;31.00;99.90;;;;;;5053778;28;20100;-74
2022/09/17 08:59:55;;;;;;;13.57;2.05;;;31.00;99.90;;;;;;5053863;28;20104;-72
2022/09/17 09:02:31;;;;;;;15.45;2.60;;;30.60;99.90;;;;;;5053497;28;20058;-72
2022/09/17 09:04:57;;;;;;;;;;;30.80;99.90;;;;;;5054026;28;20138;-72
2022/09/17 09:07:37;;;;;;;12.07;2.33;;;30.90;99.90;;;;;;5053163;28;19908;-73
2022/09/17 09:10:24;;;;;;;17.88;2.50;;;30.90;99.90;;;;;;5051950;28;20040;-72
2022/09/17 09:12:51;;;;;;;17.73;2.60;;;30.80;99.90;;;;;;5053563;28;20055;-73
2022/09/17 09:15:35;;;;;;;14.15;2.47;;;30.90;99.90;;;;;;5053180;28;20017;-72
2022/09/17 09:18:20;;;;;;;19.83;2.50;;;31.20;99.90;;;;;;5051161;28;20196;-73
2022/09/17 09:20:52;;;;;;;15.32;2.60;;;31.30;99.90;;;;;;5051333;28;20033;-72
2022/09/17 09:23:49;;;;;;;21.30;3.53;;;30.70;99.90;;;;;;5053317;28;20021;-72
2022/09/17 09:26:17;;;;;;;19.92;3.25;;;30.60;99.90;;;;;;5053984;28;20021;-72
2022/09/17 09:29:03;;;;;;;19.95;3.42;;;30.50;99.90;;;;;;5053571;28;20037;-73
2022/09/17 09:31:45;;;;;;;20.85;3.13;;;30.80;99.90;;;;;;5052910;28;20454;-71
2022/09/17 09:34:13;;;;;;;18.67;2.90;;;30.80;99.90;;;;;;5053410;28;20029;-72
2022/09/17 09:36:39;;;;;;;16.40;2.85;;;31.10;99.90;;;;;;5053142;28;20092;-72
2022/09/17 09:39:19;;;;;;;16.98;2.80;;;31.20;99.90;;;;;;5053263;28;20029;-72
2022/09/17 09:41:59;;;;;;;15.88;3.13;;;31.40;99.90;;;;;;5053430;28;20024;-72
2022/09/17 09:44:26;;;;;;;13.27;2.67;;;31.60;99.90;;;;;;5053228;28;20025;-73
2022/09/17 09:47:18;;;;;;;21.23;2.95;;;31.60;99.90;;;;;;5053479;28;20033;-72
2022/09/17 09:49:59;;;;;;;20.35;3.30;;;31.70;99.90;;;;;;5052435;28;20040;-72
2022/09/17 09:52:31;;;;;;;19.83;2.88;;;31.40;99.90;;;;;;5053260;28;20070;-72
2022/09/17 09:55:16;;;;;;;16.85;2.97;;;31.20;99.90;;;;;;5053104;28;20048;-72
2022/09/17 09:57:51;;;;;;;18.85;3.40;;;30.60;99.90;;;;;;5052569;28;20118;-72
2022/09/17 10:00:31;;;;;;;19.92;3.05;;;30.30;99.90;;;;;;5052514;28;20039;-72
2022/09/17 10:03:22;;;;;;;20.02;3.33;;;30.40;99.90;;;;;;5052372;28;20028;-72
2022/09/17 10:05:59;;;;;;;16.83;3.15;;;30.50;99.90;;;;;;5051027;28;20085;-72
2022/09/17 10:08:27;;;;;;;10.60;2.90;;;30.80;99.90;;;;;;5051803;28;20025;-72
2022/09/17 10:10:56;;;;;;;19.33;2.80;;;31.10;99.90;;;;;;5052991;28;20068;-73
2022/09/17 10:13:22;;;;;;;16.98;2.97;;;31.20;99.90;;;;;;5052289;28;20021;-72
2022/09/17 10:15:48;;;;;;;13.68;2.83;;;31.00;99.90;;;;;;5052609;28;20028;-73
2022/09/17 10:18:16;;;;;;;;;;;31.30;99.90;;;;;;5052955;28;20040;-73
2022/09/17 10:21:03;;;;;;;13.82;3.03;;;30.80;99.90;;;;;;5052021;28;19904;-73
2022/09/17 10:23:35;;;;;;;9.65;1.92;;;30.50;99.90;;;;;;5052537;28;20033;-72
2022/09/17 10:26:02;;;;;;;16.33;2.47;;;30.80;99.90;;;;;;5052431;28;20039;-73
2022/09/17 10:28:51;;;;;;;18.48;2.72;;;31.20;99.90;;;;;;5052192;28;20060;-72
2022/09/17 10:31:18;;;;;;;17.92;2.15;;;31.50;99.90;;;;;;5050686;28;20076;-73
2022/09/17 10:33:54;;;;;;;13.57;2.30;;;31.70;99.90;;;;;;5052116;28;20033;-73
2022/09/17 10:36:43;;;;;;;13.15;2.33;;;31.60;99.90;;;;;;5052324;28;20045;-73
2022/09/17 10:39:45;;;;;;;11.80;2.10;;;31.90;99.90;;;;;;5052344;28;20029;-73
2022/09/17 10:42:14;;;;;;;11.40;2.60;;;31.90;99.90;;;;;;5029698;28;20033;-73
2022/09/17 10:44:52;;;;;;;12.57;2.30;;;32.10;99.90;;;;;;5029782;28;20463;-73
2022/09/17 10:47:31;;;;;;;14.93;2.40;;;32.00;99.90;;;;;;5029569;28;20485;-73
2022/09/17 10:50:00;;;;;;;13.10;2.58;;;32.10;99.90;;;;;;5012838;28;20390;-73
2022/09/17 10:52:35;;;;;;;14.07;2.40;;;32.10;99.90;;;;;;5030652;28;20025;-73
2022/09/17 10:55:19;;;;;;;;;;;31.90;99.90;;;;;;5030802;28;20037;-73
2022/09/17 10:57:55;;;;;;;12.13;1.90;;;31.90;99.90;;;;;;5030184;28;19943;-73
2022/09/17 11:00:22;;;;;;;;;;;32.00;99.90;;;;;;5013252;28;20144;-73
2022/09/17 11:03:42;;;;;;;10.48;2.25;;;31.80;99.90;;;;;;5029746;28;19916;-73
2022/09/17 11:06:33;;;;;;;9.20;2.08;;;32.10;99.90;;;;;;4990777;28;20023;-73
2022/09/17 11:09:09;;;;;;;10.65;2.25;;;32.30;99.90;;;;;;4990439;28;20050;-72
2022/09/17 11:11:53;;;;;;;9.55;2.05;;;32.50;99.90;;;;;;4990729;28;20075;-72
2022/09/17 11:14:36;;;;;;;18.42;3.10;;;32.40;99.90;;;;;;4990619;28;20038;-73
2022/09/17 11:17:11;;;;;;;10.85;2.13;;;32.60;99.90;;;;;;4994951;28;20038;-72
2022/09/17 11:19:58;;;;;;;10.65;2.15;;;32.60;99.90;;;;;;5010849;28;20081;-72
2022/09/17 11:22:48;;;;;;;13.88;2.30;;;32.60;99.90;;;;;;5010438;28;20034;-72
2022/09/17 11:25:31;;;;;;;12.40;2.72;;;32.60;99.90;;;;;;5011616;28;20092;-73
2022/09/17 11:28:25;;;;;;;10.20;2.10;;;32.50;99.90;;;;;;5010367;28;20047;-73
2022/09/17 11:31:10;;;;;;;10.57;2.20;;;31.80;99.90;;;;;;5010097;28;20076;-72
2022/09/17 11:33:57;;;;;;;14.10;2.70;;;32.20;99.90;;;;;;5010901;28;20034;-72
2022/09/17 11:36:32;;;;;;;15.10;2.35;;;32.10;99.90;;;;;;5010634;28;20025;-72
2022/09/17 11:39:11;;;;;;;10.40;2.65;;;32.10;99.90;;;;;;5011327;28;20068;-73
2022/09/17 11:41:42;;;;;;;9.43;2.03;;;32.00;99.90;;;;;;5052541;28;20358;-73
2022/09/17 11:44:12;;;;;;;7.72;1.83;;;32.10;99.90;;;;;;5052219;28;20102;-73
2022/09/17 11:46:49;;;;;;;12.95;2.15;;;32.40;99.90;;;;;;5052098;28;20021;-73
2022/09/17 11:49:22;;;;;;;10.27;2.03;;;32.60;99.90;;;;;;5050578;28;20029;-73
2022/09/17 11:52:03;;;;;;;11.90;2.60;;;32.70;99.90;;;;;;5051556;28;20029;-73
2022/09/17 11:54:43;;;;;;;10.43;2.35;;;32.70;99.90;;;;;;5051972;28;20031;-73
2022/09/17 11:57:25;;;;;;;8.25;2.20;;;32.80;99.90;;;;;;5052353;28;20067;-74
2022/09/17 12:00:07;;;;;;;12.18;2.85;;;32.90;99.90;;;;;;5051907;28;20017;-73
2022/09/17 12:03:05;;;;;;;15.05;2.40;;;32.70;99.90;;;;;;5052438;28;20021;-73
2022/09/17 12:05:44;;;;;;;11.95;2.70;;;32.80;99.90;;;;;;5051755;28;20082;-73
2022/09/17 12:08:14;;;;;;;11.13;2.47;;;32.70;99.90;;;;;;5050693;28;20040;-73
2022/09/17 12:10:52;;;;;;;13.07;2.45;;;32.70;99.90;;;;;;5052198;28;20025;-73
2022/09/17 12:13:27;;;;;;;11.00;2.13;;;32.70;99.90;;;;;;5051940;28;20402;-73
2022/09/17 12:16:30;;;;;;;12.88;2.33;;;32.60;99.90;;;;;;5051964;28;20025;-74
2022/09/17 12:19:27;;;;;;;21.05;2.63;;;32.50;99.90;;;;;;5052224;28;20032;-74
2022/09/17 12:22:28;;;;;;;11.43;2.65;;;32.40;99.90;;;;;;5052313;28;20071;-74
2022/09/17 12:24:54;;;;;;;9.90;2.03;;;32.60;99.90;;;;;;5052521;28;20028;-74
2022/09/17 12:27:33;;;;;;;9.25;1.98;;;32.40;99.90;;;;;;5052214;28;20056;-74
2022/09/17 12:30:27;;;;;;;9.32;2.00;;;32.50;99.90;;;;;;5052672;28;20374;-74
2022/09/17 12:33:16;;;;;;;15.93;2.22;;;32.70;99.90;;;;;;5052512;28;20041;-74
2022/09/17 12:36:04;;;;;;;10.30;2.38;;;32.80;99.90;;;;;;5052648;28;20099;-75
2022/09/17 12:38:57;;;;;;;12.80;2.05;;;32.80;99.90;;;;;;5052473;28;20387;-74
2022/09/17 12:41:31;;;;;;;8.07;1.85;;;32.70;99.90;;;;;;5050715;28;20040;-74
2022/09/17 12:44:05;;;;;;;8.52;1.80;;;32.40;99.90;;;;;;5052639;28;20025;-74
2022/09/17 12:47:09;;;;;;;8.65;1.58;;;32.50;99.90;;;;;;5052628;28;20047;-74
2022/09/17 12:50:16;;;;;;;7.57;1.80;;;32.40;99.90;;;;;;5049081;28;20145;-73
2022/09/17 12:52:45;;;;;;;7.70;1.90;;;32.40;99.90;;;;;;5052511;28;20055;-74
2022/09/17 12:55:35;;;;;;;9.30;2.15;;;32.40;99.90;;;;;;5051793;28;20029;-74
2022/09/17 12:58:36;;;;;;;11.18;1.77;;;32.30;99.90;;;;;;5052299;28;20118;-74
2022/09/17 13:01:30;;;;;;;10.07;1.80;;;32.30;99.90;;;;;;5052448;28;20029;-73
2022/09/17 13:04:22;;;;;;;7.63;1.95;;;32.30;99.90;;;;;;5052347;28;20021;-74
2022/09/17 13:07:06;;;;;;;13.13;2.03;;;32.30;99.90;;;;;;5051417;28;20443;-74
2022/09/17 13:09:57;;;;;;;8.70;1.70;;;32.50;99.90;;;;;;5050541;28;20037;-74
2022/09/17 13:13:01;;;;;;;6.70;1.75;;;32.60;99.90;;;;;;5050569;28;20022;-74
2022/09/17 13:15:33;;;;;;;11.30;1.80;;;32.60;99.90;;;;;;5029778;28;20045;-74
2022/09/17 13:18:26;;;;;;;7.88;1.52;;;32.40;99.90;;;;;;5030001;28;20029;-74